Portada
METAR-TAF:

METAR-TAF

Aeroports :

Sirri Island, Iran

latitud: 25-54-34N, longitud: 054-32-22E, altitud: 13 m

Observació

L'informe es va fer fa 2 hores i 39 minuts, a les 15:00 UTC
Vent 4 kt del Oest/Nord-Oest
Temperatura 23°C
Humitat 78%
Pressió 1010 hPa
Visibilitat: 7000 m

METAR: OIBS 031500Z 30004KT 7000 NSC 23/19 Q1010

Hora: 22:09 (17:39 UTC)


TAF: manca

Observacions i pronòstics meteorològics de més de 4000 aeroports (METAR i TAF).

Les estacions disponibles són els punts grocs i vermells al mapa.

Posi el ratolí al punt desitjat per veure el nom de l'estació.

Feu clic per veure les observacions i els pronòstics meteorològics.

Per canviar el mapa: feu clic els botons verds amb una creu de color negre per apropar; al botó verd amb un guió per allunyar la imatge; o en les fletxes verdes per a mapes adjacents.


METAR-TAF: